createdAt,value
2023-01-25T00:00:29.797Z,102702.66
2023-01-25T00:02:57.117Z,102694.41
2023-01-25T00:05:23.754Z,102694.38
2023-01-25T00:07:50.379Z,102694.84
2023-01-25T00:10:16.874Z,102694.28
2023-01-25T00:12:43.721Z,102695.50
2023-01-25T00:15:10.929Z,102693.88
2023-01-25T00:17:37.521Z,102691.66
2023-01-25T00:20:04.636Z,102703.25
2023-01-25T00:22:32.161Z,102694.41
2023-01-25T00:24:58.743Z,102686.78
2023-01-25T00:27:25.583Z,102680.00
2023-01-25T00:29:52.333Z,102686.78
2023-01-25T00:32:18.877Z,102689.53
2023-01-25T00:34:50.518Z,102688.66
2023-01-25T00:37:47.302Z,102682.69
2023-01-25T00:40:14.348Z,102678.63
2023-01-25T00:42:41.423Z,102672.88
2023-01-25T00:45:10.945Z,102684.03
2023-01-25T00:47:37.716Z,102681.75
2023-01-25T00:50:09.008Z,102676.88
2023-01-25T00:52:36.039Z,102671.09
2023-01-25T00:55:03.042Z,102670.75
2023-01-25T00:57:31.099Z,102660.28
2023-01-25T00:59:57.757Z,102666.94
2023-01-25T01:02:24.790Z,102666.94
2023-01-25T01:04:51.587Z,102662.50
2023-01-25T01:07:18.418Z,102663.66
2023-01-25T01:09:44.843Z,102662.16
2023-01-25T01:12:11.273Z,102653.28
2023-01-25T01:14:38.443Z,102647.22
2023-01-25T01:17:05.439Z,102649.69
2023-01-25T01:19:33.151Z,102655.22
2023-01-25T01:21:59.647Z,102653.34
2023-01-25T01:24:26.979Z,102663.22
2023-01-25T01:26:54.552Z,102653.22
2023-01-25T01:29:22.472Z,102659.34
2023-01-25T01:31:52.627Z,102652.53
2023-01-25T01:34:19.884Z,102652.78
2023-01-25T01:36:46.430Z,102643.50
2023-01-25T01:39:12.969Z,102651.19
2023-01-25T01:41:40.963Z,102642.69
2023-01-25T01:44:15.775Z,102646.56
2023-01-25T01:46:46.573Z,102640.19
2023-01-25T01:49:19.375Z,102643.97
2023-01-25T01:51:50.436Z,102652.66
2023-01-25T01:54:46.923Z,102647.72
2023-01-25T01:57:18.274Z,102657.34
2023-01-25T01:59:50.757Z,102656.75
2023-01-25T02:02:17.673Z,102653.13
2023-01-25T02:04:48.891Z,102658.09
2023-01-25T02:07:22.776Z,102652.66
2023-01-25T02:09:51.158Z,102658.38
2023-01-25T02:12:20.660Z,102647.97
2023-01-25T02:14:52.912Z,102650.97
2023-01-25T02:17:26.283Z,102652.00
2023-01-25T02:20:17.988Z,102654.22
2023-01-25T02:23:16.469Z,102650.91
2023-01-25T02:25:42.935Z,102641.31
2023-01-25T02:28:27.679Z,102642.47
2023-01-25T02:30:54.608Z,102632.28
2023-01-25T02:33:26.272Z,102638.84
2023-01-25T02:36:15.672Z,102632.22
2023-01-25T02:38:48.046Z,102629.72
2023-01-25T02:41:35.845Z,102628.59
2023-01-25T02:44:09.919Z,102636.06
2023-01-25T02:46:38.438Z,102638.22
2023-01-25T02:49:08.054Z,102631.59
2023-01-25T02:51:36.514Z,102628.34
2023-01-25T02:54:06.272Z,102628.84
2023-01-25T02:56:32.940Z,102631.13
2023-01-25T02:59:05.266Z,102626.84
2023-01-25T03:01:36.665Z,102639.69
2023-01-25T03:04:05.362Z,102627.25
2023-01-25T03:06:32.695Z,102639.38
2023-01-25T03:08:59.717Z,102626.78
2023-01-25T03:11:26.381Z,102626.47
2023-01-25T03:13:53.181Z,102629.13
2023-01-25T03:16:19.945Z,102624.50
2023-01-25T03:18:46.874Z,102621.22
2023-01-25T03:21:19.169Z,102614.94
2023-01-25T03:23:47.245Z,102621.78
2023-01-25T03:26:19.975Z,102617.91
2023-01-25T03:28:46.539Z,102619.63
2023-01-25T03:31:15.709Z,102614.19
2023-01-25T03:33:42.701Z,102612.56
2023-01-25T03:36:09.350Z,102607.22
2023-01-25T03:38:36.282Z,102614.56
2023-01-25T03:41:04.028Z,102613.00
2023-01-25T03:43:30.805Z,102606.97
2023-01-25T03:46:00.990Z,102611.34
2023-01-25T03:48:28.444Z,102611.06
2023-01-25T03:50:59.165Z,102598.69
2023-01-25T03:53:31.968Z,102605.56
2023-01-25T03:56:07.091Z,102597.72
2023-01-25T03:58:34.279Z,102597.44
2023-01-25T04:01:01.973Z,102595.50
2023-01-25T04:03:31.187Z,102597.72
2023-01-25T04:05:58.873Z,102589.47
2023-01-25T04:08:26.347Z,102592.22
2023-01-25T04:11:05.153Z,102589.34
2023-01-25T04:13:32.037Z,102586.50
2023-01-25T04:15:58.502Z,102583.38
2023-01-25T04:18:25.073Z,102587.00
2023-01-25T04:20:56.161Z,102579.09
2023-01-25T04:23:24.326Z,102573.22
2023-01-25T04:25:59.242Z,102572.13
2023-01-25T04:28:27.224Z,102575.47
2023-01-25T04:30:55.796Z,102571.03
2023-01-25T04:33:23.063Z,102568.25
2023-01-25T04:35:49.894Z,102561.09
2023-01-25T04:38:16.929Z,102562.25
2023-01-25T04:40:44.179Z,102550.75
2023-01-25T04:43:13.330Z,102549.31
2023-01-25T04:45:39.851Z,102549.34
2023-01-25T04:48:09.818Z,102558.47
2023-01-25T04:50:37.719Z,102554.91
2023-01-25T04:53:06.686Z,102556.66
2023-01-25T04:55:34.181Z,102557.09
2023-01-25T04:58:02.766Z,102554.06
2023-01-25T05:00:31.030Z,102555.66
2023-01-25T05:02:58.179Z,102552.63
2023-01-25T05:05:25.393Z,102549.09
2023-01-25T05:07:51.976Z,102540.00
2023-01-25T05:10:19.790Z,102544.06
2023-01-25T05:12:46.634Z,102538.34
2023-01-25T05:15:13.382Z,102544.31
2023-01-25T05:17:40.316Z,102543.84
2023-01-25T05:20:07.235Z,102539.69
2023-01-25T05:22:34.007Z,102549.84
2023-01-25T05:25:02.809Z,102535.66
2023-01-25T05:27:29.829Z,102534.81
2023-01-25T05:29:57.607Z,102529.78
2023-01-25T05:32:24.739Z,102529.06
2023-01-25T05:34:52.511Z,102527.88
2023-01-25T05:37:21.131Z,102529.78
2023-01-25T05:39:47.969Z,102521.88
2023-01-25T05:42:17.625Z,102529.00
2023-01-25T05:44:47.106Z,102515.59
2023-01-25T05:47:16.221Z,102523.00
2023-01-25T05:49:42.917Z,102520.75
2023-01-25T05:52:17.185Z,102520.50
2023-01-25T05:54:44.543Z,102523.94
2023-01-25T05:57:13.793Z,102513.19
2023-01-25T05:59:41.400Z,102508.22
2023-01-25T06:02:08.107Z,102513.22
2023-01-25T06:04:34.881Z,102519.88
2023-01-25T06:07:01.485Z,102511.59
2023-01-25T06:09:27.965Z,102497.50
2023-01-25T06:11:54.470Z,102508.84
2023-01-25T06:14:21.229Z,102503.31
2023-01-25T06:16:47.621Z,102505.00
2023-01-25T06:19:14.355Z,102509.09
2023-01-25T06:21:41.162Z,102503.38
2023-01-25T06:24:08.011Z,102498.78
2023-01-25T06:26:34.525Z,102499.88
2023-01-25T06:29:00.905Z,102496.00
2023-01-25T06:31:27.865Z,102506.91
2023-01-25T06:33:54.899Z,102490.97
2023-01-25T06:36:22.498Z,102491.72
2023-01-25T06:38:53.235Z,102488.94
2023-01-25T06:41:20.347Z,102500.06
2023-01-25T06:43:47.955Z,102499.50
2023-01-25T06:46:15.307Z,102495.09
2023-01-25T06:48:42.954Z,102496.28
2023-01-25T06:51:13.202Z,102496.13
2023-01-25T06:53:42.409Z,102493.63
2023-01-25T06:56:12.067Z,102499.19
2023-01-25T06:58:39.970Z,102492.00
2023-01-25T07:01:07.725Z,102486.72
2023-01-25T07:03:35.006Z,102495.41
2023-01-25T07:06:04.030Z,102489.66
2023-01-25T07:08:31.688Z,102496.00
2023-01-25T07:11:01.072Z,102495.75
2023-01-25T07:13:29.530Z,102492.00
2023-01-25T07:15:57.974Z,102499.25
2023-01-25T07:18:26.115Z,102496.75
2023-01-25T07:20:53.165Z,102498.63
2023-01-25T07:23:20.209Z,102495.59
2023-01-25T07:25:48.353Z,102490.56
2023-01-25T07:28:16.091Z,102494.41
2023-01-25T07:30:43.789Z,102498.00
2023-01-25T07:33:11.455Z,102502.38
2023-01-25T07:35:38.255Z,102499.41
2023-01-25T07:38:04.744Z,102498.34
2023-01-25T07:43:15.750Z,102496.09
2023-01-25T07:45:45.368Z,102501.03
2023-01-25T07:48:12.612Z,102509.91
2023-01-25T07:50:39.694Z,102506.81
2023-01-25T07:53:06.547Z,102503.56
2023-01-25T07:55:33.647Z,102506.50
2023-01-25T07:58:00.595Z,102493.91
2023-01-25T08:00:27.422Z,102492.53
2023-01-25T08:02:54.472Z,102494.97
2023-01-25T08:05:20.907Z,102491.47
2023-01-25T08:07:48.331Z,102502.16
2023-01-25T08:10:15.224Z,102505.16
2023-01-25T08:12:46.267Z,102506.00
2023-01-25T08:15:13.843Z,102509.81
2023-01-25T08:17:40.686Z,102505.94
2023-01-25T08:20:08.764Z,102503.81
2023-01-25T08:22:35.575Z,102508.00
2023-01-25T08:25:04.326Z,102506.53
2023-01-25T08:27:31.589Z,102504.34
2023-01-25T08:29:58.168Z,102496.09
2023-01-25T08:32:24.851Z,102496.44
2023-01-25T08:34:51.539Z,102491.22
2023-01-25T08:37:18.113Z,102499.72
2023-01-25T08:39:44.742Z,102494.75
2023-01-25T08:42:11.214Z,102491.19
2023-01-25T08:44:37.949Z,102491.19
2023-01-25T08:47:04.505Z,102497.78
2023-01-25T08:49:34.341Z,102490.09
2023-01-25T08:52:00.890Z,102491.19
2023-01-25T08:54:27.356Z,102485.69
2023-01-25T08:56:54.019Z,102483.81
2023-01-25T08:59:20.788Z,102488.69
2023-01-25T09:01:47.659Z,102478.59
2023-01-25T09:04:14.968Z,102481.31
2023-01-25T09:06:41.634Z,102479.41
2023-01-25T09:09:08.535Z,102474.81
2023-01-25T09:11:37.052Z,102462.13
2023-01-25T09:14:04.808Z,102464.41
2023-01-25T09:16:31.745Z,102471.97
2023-01-25T09:19:01.947Z,102469.19
2023-01-25T09:21:29.236Z,102472.19
2023-01-25T09:24:11.986Z,102477.06
2023-01-25T09:26:45.884Z,102470.47
2023-01-25T09:29:14.341Z,102464.97
2023-01-25T09:31:43.485Z,102460.03
2023-01-25T09:34:12.336Z,102456.38
2023-01-25T09:36:39.339Z,102463.25
2023-01-25T09:39:06.062Z,102460.47
2023-01-25T09:41:42.314Z,102461.28
2023-01-25T09:44:31.630Z,102461.06
2023-01-25T09:47:43.145Z,102449.06
2023-01-25T09:50:21.412Z,102451.25
2023-01-25T09:53:20.950Z,102448.50
2023-01-25T09:56:15.749Z,102444.41
2023-01-25T09:58:48.902Z,102440.31
2023-01-25T10:01:38.030Z,102438.19
2023-01-25T10:04:16.782Z,102438.75
2023-01-25T10:06:54.991Z,102432.44
2023-01-25T10:09:49.558Z,102426.09
2023-01-25T10:12:21.604Z,102425.00
2023-01-25T10:14:49.438Z,102418.66
2023-01-25T10:17:22.346Z,102422.22
2023-01-25T10:20:04.454Z,102415.56
2023-01-25T10:22:48.039Z,102416.06
2023-01-25T10:25:38.562Z,102408.38
2023-01-25T10:28:42.489Z,102406.47
2023-01-25T10:31:18.702Z,102406.16
2023-01-25T10:33:49.531Z,102401.81
2023-01-25T10:36:21.543Z,102402.97
2023-01-25T10:38:57.353Z,102389.16
2023-01-25T10:41:32.882Z,102384.78
2023-01-25T10:44:18.159Z,102378.63
2023-01-25T10:46:51.845Z,102381.88
2023-01-25T10:49:46.179Z,102376.88
2023-01-25T10:52:14.107Z,102374.69
2023-01-25T10:54:40.588Z,102368.47
2023-01-25T10:57:08.895Z,102369.88
2023-01-25T10:59:36.394Z,102367.16
2023-01-25T11:02:36.816Z,102357.44
2023-01-25T11:05:34.732Z,102363.31
2023-01-25T11:08:32.032Z,102355.69
2023-01-25T11:10:59.583Z,102355.13
2023-01-25T11:13:32.515Z,102348.75
2023-01-25T11:16:04.716Z,102351.56
2023-01-25T11:18:34.831Z,102345.00
2023-01-25T11:21:16.220Z,102346.88
2023-01-25T11:23:42.769Z,102332.59
2023-01-25T11:26:13.586Z,102336.16
2023-01-25T11:28:41.173Z,102325.13
2023-01-25T11:31:13.237Z,102333.66
2023-01-25T11:33:42.005Z,102326.53
2023-01-25T11:36:17.627Z,102325.97
2023-01-25T11:39:09.558Z,102321.00
2023-01-25T11:41:55.811Z,102308.59
2023-01-25T11:44:49.795Z,102322.66
2023-01-25T11:47:35.930Z,102313.03
2023-01-25T11:50:15.887Z,102304.53
2023-01-25T11:52:45.032Z,102311.63
2023-01-25T11:55:29.124Z,102297.09
2023-01-25T11:58:17.347Z,102295.47
2023-01-25T12:01:05.245Z,102291.03
2023-01-25T12:03:41.212Z,102278.19
2023-01-25T12:06:14.607Z,102276.00
2023-01-25T12:09:01.228Z,102271.31
2023-01-25T12:11:56.116Z,102264.66
2023-01-25T12:14:52.450Z,102256.41
2023-01-25T12:17:21.757Z,102254.78
2023-01-25T12:19:55.688Z,102245.66
2023-01-25T12:22:30.905Z,102238.53
2023-01-25T12:25:21.917Z,102234.69
2023-01-25T12:28:12.374Z,102224.19
2023-01-25T12:30:51.263Z,102207.75
2023-01-25T12:33:41.158Z,102204.50
2023-01-25T12:36:17.730Z,102195.66
2023-01-25T12:38:56.156Z,102185.75
2023-01-25T12:41:57.321Z,102193.22
2023-01-25T12:44:46.036Z,102178.28
2023-01-25T12:47:37.994Z,102176.72
2023-01-25T12:50:26.300Z,102179.22
2023-01-25T12:53:06.547Z,102165.47
2023-01-25T12:55:33.473Z,102159.44
2023-01-25T12:58:23.804Z,102158.25
2023-01-25T13:01:19.936Z,102152.22
2023-01-25T13:04:17.532Z,102137.72
2023-01-25T13:06:56.566Z,102134.13
2023-01-25T13:09:33.271Z,102125.91
2023-01-25T13:12:03.923Z,102123.72
2023-01-25T13:14:34.826Z,102125.63
2023-01-25T13:17:24.661Z,102111.03
2023-01-25T13:19:53.335Z,102108.81
2023-01-25T13:22:55.061Z,102099.50
2023-01-25T13:25:24.002Z,102103.63
2023-01-25T13:27:50.909Z,102103.31
2023-01-25T13:30:23.914Z,102104.69
2023-01-25T13:32:50.774Z,102097.00
2023-01-25T13:35:36.889Z,102092.88
2023-01-25T13:38:26.056Z,102084.41
2023-01-25T13:41:15.325Z,102079.75
2023-01-25T13:43:46.322Z,102078.09
2023-01-25T13:46:17.201Z,102074.53
2023-01-25T13:48:48.902Z,102068.19
2023-01-25T13:51:18.275Z,102062.72
2023-01-25T13:53:55.855Z,102062.13
2023-01-25T13:56:26.784Z,102052.25
2023-01-25T13:58:53.360Z,102053.06
2023-01-25T14:01:23.448Z,102053.91
2023-01-25T14:03:54.938Z,102049.53
2023-01-25T14:06:29.198Z,102046.22
2023-01-25T14:08:59.663Z,102037.16
2023-01-25T14:11:31.603Z,102031.66
2023-01-25T14:14:16.283Z,102028.91
2023-01-25T14:16:43.577Z,102026.44
2023-01-25T14:19:29.918Z,102025.91
2023-01-25T14:22:21.616Z,102033.06
2023-01-25T14:25:03.339Z,102027.25
2023-01-25T14:27:30.535Z,102034.66
2023-01-25T14:29:57.180Z,102025.91
2023-01-25T14:32:27.034Z,102027.00
2023-01-25T14:34:53.667Z,102028.09
2023-01-25T14:37:22.117Z,102027.00
2023-01-25T14:39:50.932Z,102026.44
2023-01-25T14:42:18.477Z,102027.00
2023-01-25T14:44:46.164Z,102016.56
2023-01-25T14:47:22.047Z,102009.94
2023-01-25T14:49:48.779Z,102005.56
2023-01-25T14:52:21.796Z,102002.53
2023-01-25T14:54:58.746Z,101999.25
2023-01-25T14:57:35.848Z,101997.88
2023-01-25T15:00:19.624Z,101998.69
2023-01-25T15:02:56.575Z,101999.00
2023-01-25T15:05:31.570Z,102009.66
2023-01-25T15:08:26.872Z,102004.50
2023-01-25T15:11:18.734Z,101993.47
2023-01-25T15:13:45.202Z,101998.97
2023-01-25T15:16:12.698Z,101991.84
2023-01-25T15:18:46.511Z,101984.97
2023-01-25T15:21:20.041Z,101987.19
2023-01-25T15:23:48.330Z,101981.41
2023-01-25T15:26:29.743Z,101972.63
2023-01-25T15:29:01.728Z,101975.38
2023-01-25T15:31:31.950Z,101974.00
2023-01-25T15:34:00.128Z,101971.53
2023-01-25T15:36:27.991Z,101968.22
2023-01-25T15:38:55.360Z,101975.91
2023-01-25T15:41:22.205Z,101967.13
2023-01-25T15:43:49.199Z,101973.72
2023-01-25T15:46:23.669Z,101967.66
2023-01-25T15:48:51.468Z,101966.03
2023-01-25T15:51:18.302Z,101964.91
2023-01-25T15:53:46.687Z,101962.75
2023-01-25T15:56:18.434Z,101965.47
2023-01-25T15:58:49.184Z,101961.06
2023-01-25T16:01:16.457Z,101947.34
2023-01-25T16:03:43.253Z,101950.91
2023-01-25T16:06:35.356Z,101945.69
2023-01-25T16:09:13.399Z,101940.19
2023-01-25T16:11:40.022Z,101943.22
2023-01-25T16:14:07.146Z,101938.84
2023-01-25T16:16:39.138Z,101937.44
2023-01-25T16:19:06.527Z,101934.69
2023-01-25T16:21:33.266Z,101940.19
2023-01-25T16:24:00.373Z,101935.81
2023-01-25T16:26:28.800Z,101939.06
2023-01-25T16:28:55.490Z,101931.69
2023-01-25T16:31:32.370Z,101938.56
2023-01-25T16:34:00.888Z,101935.50
2023-01-25T16:36:28.345Z,101941.84
2023-01-25T16:38:55.395Z,101942.41
2023-01-25T16:41:21.980Z,101938.84
2023-01-25T16:43:49.440Z,101936.38
2023-01-25T16:46:21.979Z,101941.59
2023-01-25T16:48:52.002Z,101934.72
2023-01-25T16:51:24.396Z,101939.66
2023-01-25T16:53:53.105Z,101933.91
2023-01-25T16:56:28.565Z,101935.00
2023-01-25T16:58:57.507Z,101930.59
2023-01-25T17:01:25.184Z,101930.34
2023-01-25T17:03:54.835Z,101920.47
2023-01-25T17:06:22.627Z,101930.88
2023-01-25T17:08:50.369Z,101924.28
2023-01-25T17:11:18.859Z,101936.09
2023-01-25T17:13:56.532Z,101929.22
2023-01-25T17:16:25.638Z,101927.03
2023-01-25T17:18:59.987Z,101917.72
2023-01-25T17:21:27.774Z,101913.88
2023-01-25T17:23:57.527Z,101915.25
2023-01-25T17:26:27.375Z,101914.44
2023-01-25T17:28:56.103Z,101910.03
2023-01-25T17:31:28.665Z,101905.66
2023-01-25T17:33:56.344Z,101907.84
2023-01-25T17:36:23.437Z,101902.09
2023-01-25T17:38:49.959Z,101897.97
2023-01-25T17:41:17.004Z,101896.59
2023-01-25T17:43:44.091Z,101899.59
2023-01-25T17:46:11.393Z,101891.63
2023-01-25T17:48:37.772Z,101893.84
2023-01-25T17:51:04.414Z,101890.56
2023-01-25T17:53:31.754Z,101889.47
2023-01-25T17:56:03.813Z,101888.63
2023-01-25T17:58:31.169Z,101896.03
2023-01-25T18:01:12.611Z,101897.97
2023-01-25T18:03:40.064Z,101894.69
2023-01-25T18:06:09.340Z,101882.06
2023-01-25T18:08:40.604Z,101879.31
2023-01-25T18:11:10.063Z,101876.00
2023-01-25T18:13:40.874Z,101873.25
2023-01-25T18:16:09.391Z,101878.75
2023-01-25T18:18:37.207Z,101875.47
2023-01-25T18:21:09.889Z,101877.66
2023-01-25T18:23:38.567Z,101875.47
2023-01-25T18:26:09.027Z,101875.47
2023-01-25T18:28:36.362Z,101878.75
2023-01-25T18:31:06.724Z,101874.09
2023-01-25T18:33:33.299Z,101861.75
2023-01-25T18:36:03.660Z,101868.59
2023-01-25T18:38:31.162Z,101862.28
2023-01-25T18:40:57.675Z,101857.91
2023-01-25T18:43:24.788Z,101864.75
2023-01-25T18:45:56.642Z,101857.88
2023-01-25T18:48:30.881Z,101852.41
2023-01-25T18:51:06.309Z,101850.50
2023-01-25T18:53:34.553Z,101852.97
2023-01-25T18:56:07.175Z,101852.97
2023-01-25T18:58:36.497Z,101853.53
2023-01-25T19:01:10.145Z,101856.28
2023-01-25T19:03:36.962Z,101854.63
2023-01-25T19:06:04.405Z,101855.44
2023-01-25T19:08:54.078Z,101854.88
2023-01-25T19:11:21.878Z,101851.88
2023-01-25T19:13:49.910Z,101843.91
2023-01-25T19:16:25.753Z,101846.38
2023-01-25T19:18:54.756Z,101832.09
2023-01-25T19:21:24.683Z,101833.75
2023-01-25T19:23:52.762Z,101820.31
2023-01-25T19:26:21.879Z,101818.69
2023-01-25T19:28:49.611Z,101818.38
2023-01-25T19:31:27.280Z,101825.25
2023-01-25T19:33:56.113Z,101823.88
2023-01-25T19:36:23.451Z,101813.44
2023-01-25T19:38:50.730Z,101815.38
2023-01-25T19:41:19.683Z,101814.56
2023-01-25T19:43:47.186Z,101811.81
2023-01-25T19:46:17.775Z,101810.16
2023-01-25T19:48:48.811Z,101808.50
2023-01-25T19:51:23.551Z,101801.66
2023-01-25T19:53:59.834Z,101806.06
2023-01-25T19:56:28.340Z,101793.16
2023-01-25T19:58:55.703Z,101785.22
2023-01-25T20:01:25.417Z,101784.97
2023-01-25T20:03:54.958Z,101777.25
2023-01-25T20:06:21.437Z,101772.84
2023-01-25T20:08:48.337Z,101767.66
2023-01-25T20:11:26.479Z,101761.88
2023-01-25T20:13:56.683Z,101750.38
2023-01-25T20:16:24.133Z,101747.09
2023-01-25T20:18:51.071Z,101751.75
2023-01-25T20:21:20.256Z,101749.00
2023-01-25T20:23:56.956Z,101747.38
2023-01-25T20:26:32.506Z,101743.81
2023-01-25T20:29:00.192Z,101721.03
2023-01-25T20:31:36.121Z,101732.53
2023-01-25T20:34:06.333Z,101718.31
2023-01-25T20:36:34.821Z,101729.53
2023-01-25T20:39:01.725Z,101718.03
2023-01-25T20:41:28.800Z,101716.41
2023-01-25T20:43:57.913Z,101707.56
2023-01-25T20:46:25.018Z,101707.03
2023-01-25T20:48:53.405Z,101694.66
2023-01-25T20:51:21.435Z,101682.34
2023-01-25T20:53:50.113Z,101685.63
2023-01-25T20:56:18.404Z,101698.28
2023-01-25T20:58:50.967Z,101707.59
2023-01-25T21:01:26.460Z,101704.56
2023-01-25T21:03:57.028Z,101703.19
2023-01-25T21:06:25.012Z,101715.31
2023-01-25T21:08:51.707Z,101719.13
2023-01-25T21:11:19.016Z,101716.91
2023-01-25T21:13:47.283Z,101709.25
2023-01-25T21:16:18.235Z,101712.00
2023-01-25T21:18:46.937Z,101716.41
2023-01-25T21:21:16.559Z,101691.16
2023-01-25T21:23:45.208Z,101690.56
2023-01-25T21:26:23.354Z,101683.47
2023-01-25T21:28:51.312Z,101676.91
2023-01-25T21:31:26.141Z,101679.34
2023-01-25T21:33:54.450Z,101674.97
2023-01-25T21:36:21.911Z,101679.09
2023-01-25T21:38:51.269Z,101677.44
2023-01-25T21:41:24.404Z,101677.44
2023-01-25T21:44:14.191Z,101671.97
2023-01-25T21:46:41.355Z,101659.66
2023-01-25T21:49:28.495Z,101653.00
2023-01-25T21:51:59.027Z,101652.25
2023-01-25T21:54:28.009Z,101656.38
2023-01-25T21:56:57.074Z,101642.94
2023-01-25T21:59:23.643Z,101633.56
2023-01-25T22:01:51.064Z,101640.75
2023-01-25T22:04:19.302Z,101655.03
2023-01-25T22:06:48.545Z,101648.16
2023-01-25T22:09:15.201Z,101621.00
2023-01-25T22:11:42.053Z,101624.84
2023-01-25T22:14:08.627Z,101631.19
2023-01-25T22:16:35.107Z,101640.50
2023-01-25T22:19:01.846Z,101633.63
2023-01-25T22:21:31.882Z,101650.06
2023-01-25T22:24:00.336Z,101634.69
2023-01-25T22:26:32.694Z,101644.06
2023-01-25T22:29:00.385Z,101641.00
2023-01-25T22:31:30.540Z,101638.03
2023-01-25T22:33:58.931Z,101625.72
2023-01-25T22:36:27.831Z,101630.63
2023-01-25T22:38:54.697Z,101625.13
2023-01-25T22:41:27.475Z,101628.13
2023-01-25T22:43:54.669Z,101635.84
2023-01-25T22:46:23.509Z,101634.19
2023-01-25T22:48:50.012Z,101634.19
2023-01-25T22:51:21.803Z,101633.09
2023-01-25T22:53:49.465Z,101624.59
2023-01-25T22:56:18.422Z,101641.84
2023-01-25T22:58:46.631Z,101648.72
2023-01-25T23:01:16.212Z,101641.84
2023-01-25T23:03:43.024Z,101639.09
2023-01-25T23:06:14.602Z,101633.63
2023-01-25T23:08:41.676Z,101637.19
2023-01-25T23:11:16.928Z,101625.94
2023-01-25T23:14:03.339Z,101639.94
2023-01-25T23:16:30.668Z,101632.56
2023-01-25T23:18:57.493Z,101638.28
2023-01-25T23:21:28.311Z,101638.56
2023-01-25T23:23:56.050Z,101629.81
2023-01-25T23:26:23.554Z,101627.63
2023-01-25T23:28:53.024Z,101621.03
2023-01-25T23:31:21.813Z,101628.97
2023-01-25T23:33:54.122Z,101623.75
2023-01-25T23:36:23.420Z,101619.69
2023-01-25T23:38:50.584Z,101609.00
2023-01-25T23:41:19.073Z,101626.56
2023-01-25T23:43:46.483Z,101613.94
2023-01-25T23:46:15.892Z,101605.44
2023-01-25T23:48:43.495Z,101601.34
2023-01-25T23:51:11.182Z,101600.25
2023-01-25T23:53:39.196Z,101602.69
2023-01-25T23:56:19.007Z,101610.66
2023-01-25T23:58:46.292Z,101605.16
